Weather at Sonora Municipal Airport

Public forecast

Using degrees Fahrenheit for public forecast. Weather courtesy of forecast.io.

Current aviation weather report (METAR) for Sonora Municipal Airport

Retrieved 2022/08/15 19:15 UTC (7 minutes ago):

KSOA 151915Z AUTO 11010G16KT 10SM CLR 28/19 A3004 RMK AO2

Aviation forecast (TAF) for Sonora Municipal Airport

Retrieved 2022/08/15 18:30 UTC (52 minutes ago):

TAF KSOA 151728Z 1518/1618 13010G15KT P6SM VCTS BKN050CB FM160000 15005KT P6SM SCT050 BKN250